SWR5Z LFPG-LSZH
Flight info
| Callsign | SWR5Z |
|---|---|
| Flight time | 0h 48m |
| Altitude | 33000 |
| Route | BUBLI DCT LUVAL DCT OKIPO DCT PEVIT DCT BLM |
| Aircraft | A20N/M-SDE2E3FGHIJ1RWXY/LB1 |
Departure
| Time | 2026-05-07 13:47 |
|---|---|
| Airport | Charles de Gaulle International Airport (LFPG) |
Arrival
| Time | 2026-05-07 14:35 |
|---|---|
| Airport | Zürich Airport (LSZH) |
| Time | Latitude | Longitude | Altitude | Speed | Heading |
|---|---|---|---|---|---|
| 2026-05-07 13:14 | 49.01356 | 2.54593 | 354 ft | 0 kts | 286° |
| 2026-05-07 13:34 | 49.01354 | 2.54603 | 360 ft | 3 kts | 285° |
| 2026-05-07 13:35 | 49.01347 | 2.54643 | 356 ft | 3 kts | 284° |
| 2026-05-07 13:35 | 49.01343 | 2.54683 | 357 ft | 4 kts | 266° |
| 2026-05-07 13:35 | 49.01349 | 2.54720 | 361 ft | 4 kts | 224° |
| 2026-05-07 13:35 | 49.01361 | 2.54731 | 362 ft | 1 kts | 192° |
| 2026-05-07 13:36 | 49.01363 | 2.54732 | 362 ft | 0 kts | 192° |
| 2026-05-07 13:40 | 49.01347 | 2.54726 | 359 ft | 5 kts | 192° |
| 2026-05-07 13:40 | 49.01299 | 2.54703 | 357 ft | 9 kts | 203° |
| 2026-05-07 13:41 | 49.01230 | 2.54637 | 357 ft | 14 kts | 230° |
| 2026-05-07 13:41 | 49.01205 | 2.54492 | 354 ft | 15 kts | 264° |
| 2026-05-07 13:41 | 49.01197 | 2.54311 | 353 ft | 20 kts | 265° |
| 2026-05-07 13:41 | 49.01187 | 2.54098 | 351 ft | 20 kts | 265° |
| 2026-05-07 13:42 | 49.01175 | 2.53881 | 355 ft | 21 kts | 265° |
| 2026-05-07 13:42 | 49.01244 | 2.53688 | 360 ft | 23 kts | 327° |
| 2026-05-07 13:42 | 49.01399 | 2.53611 | 355 ft | 24 kts | 352° |
| 2026-05-07 13:42 | 49.01565 | 2.53605 | 354 ft | 19 kts | 354° |
| 2026-05-07 13:43 | 49.01667 | 2.53482 | 358 ft | 20 kts | 292° |
| 2026-05-07 13:43 | 49.01672 | 2.53263 | 361 ft | 22 kts | 264° |
| 2026-05-07 13:43 | 49.01660 | 2.53015 | 354 ft | 25 kts | 265° |
| 2026-05-07 13:43 | 49.01724 | 2.52784 | 354 ft | 26 kts | 329° |
| 2026-05-07 13:44 | 49.01903 | 2.52742 | 357 ft | 27 kts | 356° |
| 2026-05-07 13:44 | 49.02094 | 2.52724 | 354 ft | 28 kts | 356° |
| 2026-05-07 13:44 | 49.02276 | 2.52687 | 355 ft | 25 kts | 328° |
| 2026-05-07 13:44 | 49.02298 | 2.52437 | 356 ft | 26 kts | 263° |
| 2026-05-07 13:45 | 49.02226 | 2.52315 | 360 ft | 8 kts | 185° |
| 2026-05-07 13:45 | 49.02224 | 2.52315 | 360 ft | 0 kts | 183° |
| 2026-05-07 13:45 | 49.02204 | 2.52312 | 358 ft | 5 kts | 186° |
| 2026-05-07 13:46 | 49.02151 | 2.52312 | 359 ft | 10 kts | 164° |
| 2026-05-07 13:46 | 49.02125 | 2.52456 | 355 ft | 30 kts | 85° |
| 2026-05-07 13:46 | 49.02165 | 2.53151 | 357 ft | 100 kts | 85° |
| 2026-05-07 13:46 | 49.02234 | 2.54492 | 362 ft | 151 kts | 85° |
| 2026-05-07 13:47 | 49.02315 | 2.56163 | 777 ft | 159 kts | 84° |
| 2026-05-07 13:47 | 49.02390 | 2.57854 | 1402 ft | 162 kts | 86° |
| 2026-05-07 13:47 | 49.02460 | 2.59583 | 2047 ft | 164 kts | 86° |
| 2026-05-07 13:47 | 49.02524 | 2.61329 | 2691 ft | 167 kts | 86° |
| 2026-05-07 13:48 | 49.02626 | 2.63183 | 3133 ft | 185 kts | 84° |
| 2026-05-07 13:48 | 49.02765 | 2.65241 | 3599 ft | 206 kts | 84° |
| 2026-05-07 13:48 | 49.02912 | 2.67554 | 4098 ft | 231 kts | 85° |
| 2026-05-07 13:48 | 49.03059 | 2.70101 | 4819 ft | 253 kts | 85° |
| 2026-05-07 13:49 | 49.03208 | 2.72873 | 5695 ft | 267 kts | 86° |
| 2026-05-07 13:49 | 49.03350 | 2.75716 | 6834 ft | 270 kts | 86° |
| 2026-05-07 13:49 | 49.03488 | 2.78605 | 7887 ft | 277 kts | 86° |
| 2026-05-07 13:49 | 49.03629 | 2.81568 | 8929 ft | 283 kts | 86° |
| 2026-05-07 13:50 | 49.03773 | 2.84614 | 9983 ft | 290 kts | 86° |
| 2026-05-07 13:50 | 49.03922 | 2.87750 | 10701 ft | 308 kts | 86° |
| 2026-05-07 13:50 | 49.04083 | 2.91143 | 11133 ft | 332 kts | 86° |
| 2026-05-07 13:50 | 49.04226 | 2.94718 | 11724 ft | 348 kts | 91° |
| 2026-05-07 13:51 | 49.03758 | 2.98334 | 12616 ft | 352 kts | 113° |
| 2026-05-07 13:51 | 49.02589 | 3.01647 | 13541 ft | 357 kts | 122° |
| 2026-05-07 13:51 | 49.01304 | 3.04842 | 14353 ft | 362 kts | 123° |
| 2026-05-07 13:51 | 48.99947 | 3.08155 | 15207 ft | 366 kts | 123° |
| 2026-05-07 13:52 | 48.98593 | 3.11481 | 16039 ft | 371 kts | 123° |
| 2026-05-07 13:52 | 48.97232 | 3.14852 | 16855 ft | 375 kts | 122° |
| 2026-05-07 13:52 | 48.95864 | 3.18261 | 17654 ft | 380 kts | 122° |
| 2026-05-07 13:52 | 48.94475 | 3.21731 | 18427 ft | 385 kts | 122° |
| 2026-05-07 13:53 | 48.93077 | 3.25223 | 19130 ft | 389 kts | 122° |
| 2026-05-07 13:53 | 48.91664 | 3.28749 | 19847 ft | 392 kts | 122° |
| 2026-05-07 13:53 | 48.90230 | 3.32322 | 20553 ft | 396 kts | 122° |
| 2026-05-07 13:53 | 48.88790 | 3.35907 | 21253 ft | 400 kts | 122° |
| 2026-05-07 13:54 | 48.87328 | 3.39538 | 21942 ft | 404 kts | 122° |
| 2026-05-07 13:54 | 48.85874 | 3.43147 | 22615 ft | 408 kts | 122° |
| 2026-05-07 13:54 | 48.84384 | 3.46838 | 23281 ft | 412 kts | 122° |
| 2026-05-07 13:54 | 48.82888 | 3.50584 | 23894 ft | 416 kts | 120° |
| 2026-05-07 13:55 | 48.81683 | 3.54597 | 24449 ft | 420 kts | 110° |
| 2026-05-07 13:55 | 48.80927 | 3.58919 | 24991 ft | 425 kts | 100° |
| 2026-05-07 13:55 | 48.80594 | 3.63379 | 25524 ft | 429 kts | 95° |
| 2026-05-07 13:55 | 48.80317 | 3.67906 | 26050 ft | 432 kts | 96° |
| 2026-05-07 13:56 | 48.80028 | 3.72463 | 26561 ft | 436 kts | 96° |
| 2026-05-07 13:56 | 48.79731 | 3.77037 | 27060 ft | 439 kts | 96° |
| 2026-05-07 13:56 | 48.79429 | 3.81623 | 27542 ft | 442 kts | 96° |
| 2026-05-07 13:56 | 48.79120 | 3.86278 | 28015 ft | 445 kts | 96° |
| 2026-05-07 13:57 | 48.78807 | 3.90970 | 28474 ft | 449 kts | 96° |
| 2026-05-07 13:57 | 48.78489 | 3.95688 | 28935 ft | 452 kts | 96° |
| 2026-05-07 13:57 | 48.78167 | 4.00452 | 29366 ft | 455 kts | 96° |
| 2026-05-07 13:57 | 48.77843 | 4.05222 | 29786 ft | 458 kts | 96° |
| 2026-05-07 13:58 | 48.77450 | 4.10036 | 30199 ft | 460 kts | 101° |
| 2026-05-07 13:58 | 48.76587 | 4.14707 | 30527 ft | 463 kts | 112° |
| 2026-05-07 13:58 | 48.75195 | 4.19098 | 30882 ft | 464 kts | 122° |
| 2026-05-07 13:58 | 48.73367 | 4.23144 | 31233 ft | 466 kts | 127° |
| 2026-05-07 13:59 | 48.71481 | 4.27137 | 31672 ft | 466 kts | 127° |
| 2026-05-07 13:59 | 48.69600 | 4.31135 | 32138 ft | 466 kts | 127° |
| 2026-05-07 13:59 | 48.67719 | 4.35137 | 32595 ft | 465 kts | 127° |
| 2026-05-07 13:59 | 48.65845 | 4.39117 | 32969 ft | 465 kts | 127° |
| 2026-05-07 14:00 | 48.63969 | 4.43096 | 33065 ft | 464 kts | 127° |
| 2026-05-07 14:00 | 48.60222 | 4.51019 | 33063 ft | 463 kts | 127° |
| 2026-05-07 14:01 | 48.56468 | 4.58934 | 33061 ft | 464 kts | 127° |
| 2026-05-07 14:01 | 48.52712 | 4.66833 | 33062 ft | 464 kts | 127° |
| 2026-05-07 14:02 | 48.48936 | 4.74748 | 33064 ft | 464 kts | 127° |
| 2026-05-07 14:02 | 48.45173 | 4.82612 | 33068 ft | 465 kts | 127° |
| 2026-05-07 14:03 | 48.41375 | 4.90527 | 33073 ft | 466 kts | 127° |
| 2026-05-07 14:03 | 48.38213 | 4.97100 | 33073 ft | 466 kts | 127° |
| 2026-05-07 14:04 | 48.33784 | 5.06280 | 33072 ft | 466 kts | 127° |
| 2026-05-07 14:04 | 48.29972 | 5.14155 | 33065 ft | 466 kts | 128° |
| 2026-05-07 14:05 | 48.26618 | 5.20566 | 33066 ft | 466 kts | 130° |
| 2026-05-07 14:05 | 48.22585 | 5.28179 | 33061 ft | 466 kts | 130° |
| 2026-05-07 14:06 | 48.18543 | 5.35788 | 33059 ft | 466 kts | 130° |
| 2026-05-07 14:06 | 48.14499 | 5.43368 | 33053 ft | 466 kts | 130° |
| 2026-05-07 14:07 | 48.10438 | 5.50957 | 33047 ft | 466 kts | 130° |
| 2026-05-07 14:07 | 48.06374 | 5.58532 | 33048 ft | 467 kts | 130° |
| 2026-05-07 14:08 | 48.02334 | 5.66041 | 33043 ft | 467 kts | 130° |
| 2026-05-07 14:08 | 47.98250 | 5.73610 | 33042 ft | 467 kts | 130° |
| 2026-05-07 14:09 | 47.94165 | 5.81165 | 33040 ft | 468 kts | 129° |
| 2026-05-07 14:09 | 47.90890 | 5.89576 | 33038 ft | 471 kts | 112° |
| 2026-05-07 14:10 | 47.89162 | 5.99006 | 33040 ft | 472 kts | 103° |
| 2026-05-07 14:10 | 47.87689 | 6.08563 | 33040 ft | 473 kts | 103° |
| 2026-05-07 14:11 | 47.86249 | 6.17753 | 33041 ft | 474 kts | 103° |
| 2026-05-07 14:12 | 47.85474 | 6.22677 | 33046 ft | 474 kts | 103° |
| 2026-05-07 14:12 | 47.83959 | 6.32244 | 33049 ft | 474 kts | 103° |
| 2026-05-07 14:13 | 47.82436 | 6.41811 | 33048 ft | 475 kts | 104° |
| 2026-05-07 14:13 | 47.80905 | 6.51376 | 33046 ft | 475 kts | 104° |
| 2026-05-07 14:14 | 47.79363 | 6.60948 | 33038 ft | 475 kts | 104° |
| 2026-05-07 14:14 | 47.78602 | 6.65660 | 32919 ft | 473 kts | 104° |
| 2026-05-07 14:14 | 47.77824 | 6.70458 | 32353 ft | 472 kts | 104° |
| 2026-05-07 14:14 | 47.77059 | 6.75157 | 31570 ft | 473 kts | 104° |
| 2026-05-07 14:15 | 47.76281 | 6.79927 | 30636 ft | 475 kts | 104° |
| 2026-05-07 14:15 | 47.75497 | 6.84720 | 29582 ft | 478 kts | 104° |
| 2026-05-07 14:15 | 47.74718 | 6.89474 | 28568 ft | 478 kts | 104° |
| 2026-05-07 14:15 | 47.73926 | 6.94292 | 27787 ft | 472 kts | 104° |
| 2026-05-07 14:16 | 47.73150 | 6.98994 | 27134 ft | 465 kts | 104° |
| 2026-05-07 14:16 | 47.72386 | 7.03615 | 26525 ft | 457 kts | 104° |
| 2026-05-07 14:16 | 47.71632 | 7.08166 | 25919 ft | 450 kts | 104° |
| 2026-05-07 14:16 | 47.70887 | 7.12640 | 25314 ft | 444 kts | 104° |
| 2026-05-07 14:17 | 47.70150 | 7.17062 | 24716 ft | 438 kts | 105° |
| 2026-05-07 14:17 | 47.69336 | 7.21381 | 24093 ft | 433 kts | 109° |
| 2026-05-07 14:17 | 47.68430 | 7.25612 | 23502 ft | 428 kts | 108° |
| 2026-05-07 14:17 | 47.67547 | 7.29801 | 22888 ft | 421 kts | 108° |
| 2026-05-07 14:18 | 47.66681 | 7.33919 | 22313 ft | 415 kts | 108° |
| 2026-05-07 14:18 | 47.65823 | 7.37986 | 21730 ft | 410 kts | 108° |
| 2026-05-07 14:18 | 47.64974 | 7.41997 | 21161 ft | 405 kts | 108° |
| 2026-05-07 14:18 | 47.64141 | 7.45917 | 20595 ft | 401 kts | 108° |
| 2026-05-07 14:19 | 47.63303 | 7.49850 | 20023 ft | 396 kts | 108° |
| 2026-05-07 14:19 | 47.62566 | 7.53196 | 19598 ft | 391 kts | 110° |
| 2026-05-07 14:19 | 47.61675 | 7.57009 | 19104 ft | 391 kts | 110° |
| 2026-05-07 14:19 | 47.60775 | 7.60792 | 18604 ft | 389 kts | 110° |
| 2026-05-07 14:20 | 47.59880 | 7.64557 | 18111 ft | 384 kts | 110° |
| 2026-05-07 14:20 | 47.59000 | 7.68277 | 17614 ft | 383 kts | 110° |
| 2026-05-07 14:20 | 47.58132 | 7.71956 | 17426 ft | 372 kts | 110° |
| 2026-05-07 14:20 | 47.57295 | 7.75515 | 17272 ft | 358 kts | 110° |
| 2026-05-07 14:21 | 47.56496 | 7.78910 | 17081 ft | 339 kts | 110° |
| 2026-05-07 14:21 | 47.55739 | 7.82128 | 16804 ft | 324 kts | 110° |
| 2026-05-07 14:21 | 47.54997 | 7.85269 | 16332 ft | 322 kts | 111° |
| 2026-05-07 14:21 | 47.54262 | 7.88373 | 15948 ft | 319 kts | 111° |
| 2026-05-07 14:22 | 47.53538 | 7.91430 | 15548 ft | 317 kts | 111° |
| 2026-05-07 14:22 | 47.52810 | 7.94494 | 15151 ft | 315 kts | 111° |
| 2026-05-07 14:22 | 47.52086 | 7.97542 | 14752 ft | 314 kts | 111° |
| 2026-05-07 14:22 | 47.51364 | 8.00578 | 14377 ft | 311 kts | 111° |
| 2026-05-07 14:23 | 47.50733 | 8.03225 | 14034 ft | 310 kts | 111° |
| 2026-05-07 14:23 | 47.50259 | 8.05215 | 13793 ft | 309 kts | 111° |
| 2026-05-07 14:23 | 47.49980 | 8.06387 | 13610 ft | 309 kts | 111° |
| 2026-05-07 14:23 | 47.49278 | 8.09335 | 13193 ft | 307 kts | 111° |
| 2026-05-07 14:24 | 47.48572 | 8.12302 | 12803 ft | 305 kts | 111° |
| 2026-05-07 14:24 | 47.47870 | 8.15250 | 12387 ft | 304 kts | 111° |
| 2026-05-07 14:24 | 47.47433 | 8.17136 | 12138 ft | 303 kts | 107° |
| 2026-05-07 14:24 | 47.47242 | 8.19848 | 11777 ft | 304 kts | 85° |
| 2026-05-07 14:25 | 47.47844 | 8.22822 | 11378 ft | 303 kts | 63° |
| 2026-05-07 14:25 | 47.49086 | 8.25292 | 11007 ft | 300 kts | 39° |
| 2026-05-07 14:25 | 47.50890 | 8.26750 | 10615 ft | 294 kts | 12° |
| 2026-05-07 14:25 | 47.52895 | 8.26894 | 10313 ft | 285 kts | 346° |
| 2026-05-07 14:26 | 47.54652 | 8.25770 | 10040 ft | 278 kts | 319° |
| 2026-05-07 14:26 | 47.55996 | 8.23805 | 9888 ft | 262 kts | 308° |
| 2026-05-07 14:26 | 47.57145 | 8.21810 | 9721 ft | 249 kts | 308° |
| 2026-05-07 14:26 | 47.58284 | 8.19906 | 9453 ft | 246 kts | 310° |
| 2026-05-07 14:27 | 47.59466 | 8.18082 | 9128 ft | 245 kts | 312° |
| 2026-05-07 14:27 | 47.60882 | 8.16685 | 8782 ft | 249 kts | 339° |
| 2026-05-07 14:27 | 47.62606 | 8.16475 | 8423 ft | 252 kts | 8° |
| 2026-05-07 14:27 | 47.64199 | 8.17533 | 8018 ft | 256 kts | 38° |
| 2026-05-07 14:28 | 47.65452 | 8.19424 | 7657 ft | 255 kts | 48° |
| 2026-05-07 14:28 | 47.66579 | 8.21454 | 7284 ft | 254 kts | 49° |
| 2026-05-07 14:28 | 47.67435 | 8.23713 | 6904 ft | 254 kts | 75° |
| 2026-05-07 14:28 | 47.67447 | 8.26281 | 6624 ft | 247 kts | 108° |
| 2026-05-07 14:29 | 47.66642 | 8.28426 | 6452 ft | 235 kts | 133° |
| 2026-05-07 14:29 | 47.65497 | 8.30134 | 6104 ft | 233 kts | 140° |
| 2026-05-07 14:29 | 47.64290 | 8.31718 | 5746 ft | 229 kts | 140° |
| 2026-05-07 14:29 | 47.63127 | 8.33299 | 5422 ft | 223 kts | 139° |
| 2026-05-07 14:30 | 47.61996 | 8.34835 | 5122 ft | 218 kts | 139° |
| 2026-05-07 14:30 | 47.60916 | 8.36308 | 4882 ft | 207 kts | 139° |
| 2026-05-07 14:30 | 47.59890 | 8.37702 | 4574 ft | 196 kts | 139° |
| 2026-05-07 14:30 | 47.58907 | 8.39039 | 4313 ft | 184 kts | 139° |
| 2026-05-07 14:31 | 47.58012 | 8.40260 | 4082 ft | 166 kts | 140° |
| 2026-05-07 14:31 | 47.57195 | 8.41369 | 3845 ft | 152 kts | 139° |
| 2026-05-07 14:31 | 47.56450 | 8.42385 | 3640 ft | 139 kts | 140° |
| 2026-05-07 14:31 | 47.55747 | 8.43341 | 3464 ft | 137 kts | 139° |
| 2026-05-07 14:32 | 47.55035 | 8.44312 | 3269 ft | 140 kts | 139° |
| 2026-05-07 14:32 | 47.54322 | 8.45280 | 3099 ft | 139 kts | 140° |
| 2026-05-07 14:32 | 47.53604 | 8.46260 | 2903 ft | 140 kts | 139° |
| 2026-05-07 14:32 | 47.52893 | 8.47229 | 2724 ft | 139 kts | 139° |
| 2026-05-07 14:33 | 47.52183 | 8.48196 | 2518 ft | 139 kts | 138° |
| 2026-05-07 14:33 | 47.51475 | 8.49174 | 2304 ft | 140 kts | 138° |
| 2026-05-07 14:33 | 47.50800 | 8.50065 | 2103 ft | 143 kts | 138° |
| 2026-05-07 14:33 | 47.50056 | 8.51056 | 1897 ft | 141 kts | 137° |
| 2026-05-07 14:34 | 47.49355 | 8.52041 | 1738 ft | 138 kts | 138° |
| 2026-05-07 14:34 | 47.48658 | 8.52999 | 1568 ft | 136 kts | 138° |
| 2026-05-07 14:34 | 47.47953 | 8.53957 | 1428 ft | 139 kts | 138° |
| 2026-05-07 14:34 | 47.47284 | 8.54872 | 1385 ft | 118 kts | 137° |
| 2026-05-07 14:35 | 47.46801 | 8.55527 | 1401 ft | 71 kts | 137° |
| 2026-05-07 14:35 | 47.46505 | 8.55927 | 1397 ft | 55 kts | 138° |
| 2026-05-07 14:35 | 47.46326 | 8.56170 | 1408 ft | 23 kts | 136° |
| 2026-05-07 14:35 | 47.46210 | 8.56318 | 1410 ft | 19 kts | 153° |
| 2026-05-07 14:36 | 47.46114 | 8.56339 | 1410 ft | 14 kts | 182° |
| 2026-05-07 14:36 | 47.46040 | 8.56328 | 1411 ft | 11 kts | 186° |
| 2026-05-07 14:36 | 47.45965 | 8.56278 | 1417 ft | 13 kts | 236° |
| 2026-05-07 14:36 | 47.45967 | 8.56130 | 1414 ft | 16 kts | 276° |
| 2026-05-07 14:37 | 47.45966 | 8.55987 | 1410 ft | 8 kts | 246° |
| 2026-05-07 14:37 | 47.45840 | 8.55904 | 1413 ft | 12 kts | 198° |
| 2026-05-07 14:37 | 47.45751 | 8.55873 | 1410 ft | 15 kts | 186° |
| 2026-05-07 14:38 | 47.45633 | 8.55855 | 1408 ft | 17 kts | 186° |
| 2026-05-07 14:38 | 47.45527 | 8.55835 | 1407 ft | 14 kts | 199° |
| 2026-05-07 14:38 | 47.45510 | 8.55705 | 1409 ft | 15 kts | 279° |
| 2026-05-07 14:38 | 47.45524 | 8.55540 | 1405 ft | 18 kts | 275° |
| 2026-05-07 14:39 | 47.45457 | 8.55452 | 1405 ft | 17 kts | 158° |
| 2026-05-07 14:39 | 47.45342 | 8.55531 | 1412 ft | 19 kts | 155° |
| 2026-05-07 14:39 | 47.45212 | 8.55593 | 1411 ft | 21 kts | 159° |
| 2026-05-07 14:39 | 47.45079 | 8.55686 | 1413 ft | 21 kts | 155° |
| 2026-05-07 14:40 | 47.44940 | 8.55716 | 1404 ft | 24 kts | 190° |
| 2026-05-07 14:40 | 47.44808 | 8.55783 | 1398 ft | 17 kts | 161° |
| 2026-05-07 14:40 | 47.44688 | 8.55859 | 1398 ft | 18 kts | 154° |
| 2026-05-07 14:40 | 47.44656 | 8.55883 | 1395 ft | 1 kts | 153° |
| 2026-05-07 14:41 | 47.44642 | 8.55893 | 1403 ft | 3 kts | 153° |
| 2026-05-07 14:41 | 47.44641 | 8.55894 | 1403 ft | 0 kts | 153° |
| 2026-05-07 14:41 | 47.44614 | 8.55913 | 1404 ft | 12 kts | 154° |
| 2026-05-07 14:41 | 47.44521 | 8.55994 | 1395 ft | 17 kts | 128° |
| 2026-05-07 14:42 | 47.44544 | 8.56129 | 1398 ft | 14 kts | 67° |
| 2026-05-07 14:42 | 47.44612 | 8.56170 | 1398 ft | 13 kts | 338° |
| 2026-05-07 14:42 | 47.44685 | 8.56116 | 1404 ft | 11 kts | 316° |
| 2026-05-07 14:42 | 47.44674 | 8.56032 | 1401 ft | 8 kts | 244° |
| 2026-05-07 14:43 | 47.44662 | 8.55995 | 1402 ft | 0 kts | 244° |